メインページ
METAR-TAF:

METAR-TAF

空港 :

カーブル国際空港

カーブル, アフガニスタン

緯度: 34-38N, 経度: 069-12E, 海抜: 1789m

現時点の気象観測

当レポートは19分前の02:50(UTC)に作成
無風
気温 12°C
湿度 67%
気圧 1021 hPa
視程: 4500m
高度9000ftの千切れ雲あり
煙霧

METAR: OAKB 210250Z 00000KT 9000 4500SW HZ BKN090 12/06 Q1021 NOSIG RMK A3017 BLU BLU

時間: 07:39 (03:09 UTC)

予報

当レポートは4時間4分前の23:05(UTC)に作成
予報は21日の 00時(UTC)から 21日の 24時(UTC)まで有効
変向風 2kt
視程10km以上
1,500メートル以下は雲なし、積乱雲なし
確率 30% :
21日の 01時(UTC)から 21日の 04時(UTC)まで一時的に
視程: 5000m
21日の 06時(UTC)から 21日の 08時(UTC)まで徐々に
の風 12kt
高度6000ftの雲はほとんどない
高度10000ftの雲は散在している
21日の 09時(UTC)から 21日の 14時(UTC)まで一時的に
北/北西の風 15kt、最大25ktの突風を伴う
視程: 6000m
高度5000ftの雲は散在している, 積乱雲.
高度8000ftの千切れ雲あり
激しい雷雨, 小雨
21日の 15時(UTC)から 21日の 17時(UTC)まで徐々に
変向風 2kt
高度10000ftの雲は散在している

TAF: OAKB 202305Z 2100/2124 VRB02KT CAVOK PROB30 TEMPO 2101/2104 5000 BR BECMG 2106/2108 35012KT FEW060 SCT100 TEMPO 2109/2114 34015G25KT 6000 -TSRA SCT050CB BKN080 BECMG 2115/2117 VRB02KT SCT100

4,000以上の空港の気象観測と天気予報(METAR報とTAF報)

利用可能な観測所は地図上に黄色い丸と赤い丸で示す。

丸の上にカーソルを重ねると観測所名を参照できる。

次にクリックすると気象観測と天気予報を参照できる。

マップの切り替え:黒色「×」印の緑ボタンをクリックして拡大、「-」印の緑ボタンをクリックして縮小、緑色の三角印をクリックして隣りの地図に切り替え


METAR-TAF: